Time;durP1;ratioP1;P1;durP2;ratioP2;P2;SDS_P1;SDS_P2;PMS_P1;PMS_P2;Temp;Humidity;BMP_temperature;BMP_pressure;BME280_temperature;BME280_humidity;BME280_pressure;Samples;Min_cycle;Max_cycle;Signal;HPM_P1;HPM_P2
2022/11/09 00:01:19;;;;;;;31.38;29.55;;;13.80;99.90;;;;;;5001744;28;20041;-88
2022/11/09 00:03:45;;;;;;;32.55;30.25;;;13.70;99.90;;;;;;5019395;28;20041;-88
2022/11/09 00:06:11;;;;;;;31.73;29.83;;;13.80;99.90;;;;;;5054246;28;20033;-87
2022/11/09 00:08:38;;;;;;;29.67;27.73;;;13.90;99.90;;;;;;5034230;28;20052;-88
2022/11/09 00:11:05;;;;;;;30.58;28.67;;;13.90;99.90;;;;;;5035830;28;20032;-87
2022/11/09 00:13:34;;;;;;;30.92;29.08;;;13.90;99.90;;;;;;5036958;28;20047;-88
2022/11/09 00:16:02;;;;;;;30.02;28.20;;;13.90;99.90;;;;;;5017709;28;20029;-87
2022/11/09 00:18:29;;;;;;;31.35;29.45;;;13.90;99.90;;;;;;5054134;28;20029;-88
2022/11/09 00:20:55;;;;;;;30.95;28.92;;;13.90;99.90;;;;;;5036110;28;20029;-86
2022/11/09 00:23:21;;;;;;;30.52;28.63;;;14.00;99.90;;;;;;5018715;28;20037;-89
2022/11/09 00:25:47;;;;;;;30.05;28.33;;;14.00;99.90;;;;;;5035777;28;20041;-87
2022/11/09 00:28:13;;;;;;;30.77;28.85;;;14.00;99.90;;;;;;5035166;28;20045;-87
2022/11/09 00:30:40;;;;;;;28.50;26.90;;;14.00;99.90;;;;;;5033863;28;20033;-89
2022/11/09 00:33:07;;;;;;;29.27;27.13;;;14.10;99.90;;;;;;5018617;28;20466;-88
2022/11/09 00:35:36;;;;;;;27.55;26.00;;;14.10;99.90;;;;;;5019466;28;20045;-88
2022/11/09 00:38:02;;;;;;;28.80;26.80;;;14.00;99.90;;;;;;5018992;28;20040;-87
2022/11/09 00:40:29;;;;;;;30.00;27.92;;;14.10;99.90;;;;;;5015310;28;20060;-88
2022/11/09 00:42:55;;;;;;;28.48;26.80;;;14.00;99.90;;;;;;5016743;28;20030;-87
2022/11/09 00:45:22;;;;;;;28.30;26.10;;;14.00;99.90;;;;;;5011743;28;20041;-87
2022/11/09 00:47:48;;;;;;;25.92;24.10;;;14.00;99.90;;;;;;5002617;28;20075;-87
2022/11/09 00:50:15;;;;;;;27.05;25.33;;;14.00;99.90;;;;;;5034978;28;20386;-87
2022/11/09 00:52:41;;;;;;;25.85;24.15;;;14.00;99.90;;;;;;5018167;28;20045;-88
2022/11/09 00:55:07;;;;;;;30.17;28.30;;;14.00;99.90;;;;;;5018914;28;20398;-88
2022/11/09 00:57:33;;;;;;;28.88;27.17;;;13.90;99.90;;;;;;5036132;28;20033;-87
2022/11/09 00:59:59;;;;;;;28.35;26.65;;;13.90;99.90;;;;;;5026196;28;20040;-88
2022/11/09 01:02:25;;;;;;;31.10;29.20;;;13.90;99.90;;;;;;5022703;28;20044;-87
2022/11/09 01:04:52;;;;;;;29.35;27.25;;;13.90;99.90;;;;;;5018013;28;20490;-88
2022/11/09 01:07:18;;;;;;;29.45;27.65;;;14.00;99.90;;;;;;5002012;28;20060;-88
2022/11/09 01:09:44;;;;;;;29.23;27.27;;;13.90;99.90;;;;;;5031631;28;20029;-87
2022/11/09 01:12:10;;;;;;;28.67;26.98;;;13.90;99.90;;;;;;5053695;28;20033;-87
2022/11/09 01:14:36;;;;;;;30.73;28.95;;;13.90;99.90;;;;;;5045412;28;20048;-87
2022/11/09 01:17:02;;;;;;;28.95;27.35;;;13.80;99.90;;;;;;5034770;28;20044;-87
2022/11/09 01:19:28;;;;;;;32.03;30.10;;;13.90;99.90;;;;;;5018060;28;20220;-88
2022/11/09 01:21:54;;;;;;;31.42;29.42;;;13.80;99.90;;;;;;5033608;28;20033;-87
2022/11/09 01:24:20;;;;;;;31.58;29.50;;;13.80;99.90;;;;;;5035331;28;20032;-89
2022/11/09 01:26:47;;;;;;;32.03;30.02;;;13.80;99.90;;;;;;5018175;28;20033;-87
2022/11/09 01:29:13;;;;;;;31.42;29.52;;;13.80;99.90;;;;;;5018113;28;20045;-88
2022/11/09 01:31:39;;;;;;;31.75;30.02;;;13.70;99.90;;;;;;5001327;28;20033;-88
2022/11/09 01:34:05;;;;;;;31.98;30.13;;;13.70;99.90;;;;;;5018008;28;20049;-88
2022/11/09 01:36:31;;;;;;;33.03;30.70;;;13.80;99.90;;;;;;5014285;28;20045;-88
2022/11/09 01:38:57;;;;;;;33.55;31.38;;;13.80;99.90;;;;;;5049377;28;20377;-88
2022/11/09 01:41:25;;;;;;;31.40;29.10;;;13.80;99.90;;;;;;5017651;28;20056;-88
2022/11/09 01:44:01;;;;;;;31.40;29.45;;;13.70;99.90;;;;;;5033956;28;20028;-87
2022/11/09 01:47:05;;;;;;;32.35;30.35;;;13.50;99.90;;;;;;5051560;28;20048;-88
2022/11/09 01:49:58;;;;;;;29.10;27.30;;;13.60;99.90;;;;;;4972074;28;20488;-88
2022/11/09 01:52:34;;;;;;;27.48;25.60;;;13.60;99.90;;;;;;4971165;28;20054;-89
2022/11/09 01:55:20;;;;;;;29.10;27.20;;;13.60;99.90;;;;;;4956042;28;20035;-88
2022/11/09 01:57:53;;;;;;;29.45;27.27;;;13.60;99.90;;;;;;4937162;28;20399;-89
2022/11/09 02:00:19;;;;;;;30.05;27.85;;;13.50;99.90;;;;;;4955435;28;20030;-88
2022/11/09 02:03:13;;;;;;;28.33;26.45;;;13.50;99.90;;;;;;4922709;28;20043;-88
2022/11/09 02:05:39;;;;;;;29.48;27.67;;;13.50;99.90;;;;;;4883699;29;20040;-87
2022/11/09 02:08:06;;;;;;;28.77;26.95;;;13.60;99.90;;;;;;4895005;29;20166;-88
2022/11/09 02:10:52;;;;;;;30.23;28.20;;;13.50;99.90;;;;;;4896700;29;20040;-88
2022/11/09 02:13:19;;;;;;;30.88;28.98;;;13.40;99.90;;;;;;4892204;29;20052;-88
2022/11/09 02:15:46;;;;;;;28.65;26.98;;;13.40;99.90;;;;;;4894082;29;20106;-88
2022/11/09 02:18:12;;;;;;;29.52;27.83;;;13.40;99.90;;;;;;4882301;29;20051;-88
2022/11/09 02:20:52;;;;;;;29.63;27.92;;;13.40;99.90;;;;;;4867935;29;20045;-88
2022/11/09 02:23:18;;;;;;;31.48;29.45;;;13.50;99.90;;;;;;4906970;28;20043;-87
2022/11/09 02:25:47;;;;;;;29.00;26.73;;;13.40;99.90;;;;;;4955376;28;20039;-88
2022/11/09 02:28:14;;;;;;;31.08;29.00;;;13.40;99.90;;;;;;4952652;28;20047;-88
2022/11/09 02:30:41;;;;;;;30.58;28.33;;;13.40;99.90;;;;;;4939338;28;20046;-88
2022/11/09 02:33:07;;;;;;;29.42;27.58;;;13.40;99.90;;;;;;4939510;28;20027;-88
2022/11/09 02:35:33;;;;;;;32.13;29.85;;;13.40;99.90;;;;;;4955753;28;20054;-87
2022/11/09 02:37:59;;;;;;;28.33;26.35;;;13.40;99.90;;;;;;4937012;28;20043;-88
2022/11/09 02:40:31;;;;;;;30.55;28.10;;;13.30;99.90;;;;;;4933359;29;20039;-88
2022/11/09 02:42:59;;;;;;;29.13;27.27;;;13.40;99.90;;;;;;4979018;28;20045;-88
2022/11/09 02:45:25;;;;;;;28.25;26.38;;;13.30;99.90;;;;;;5023583;28;20037;-89
2022/11/09 02:47:52;;;;;;;29.92;27.98;;;13.30;99.90;;;;;;5033927;28;20037;-87
2022/11/09 02:50:18;;;;;;;30.25;27.83;;;13.20;99.90;;;;;;5017049;28;20053;-88
2022/11/09 02:52:44;;;;;;;29.83;27.80;;;13.30;99.90;;;;;;5018169;28;20033;-87
2022/11/09 02:55:10;;;;;;;31.52;29.10;;;13.20;99.90;;;;;;5033403;28;20041;-88
2022/11/09 02:57:36;;;;;;;30.63;28.52;;;13.20;99.90;;;;;;5034164;28;20385;-89
2022/11/09 03:00:04;;;;;;;31.48;28.73;;;13.20;99.90;;;;;;5016884;28;20055;-88
2022/11/09 03:02:31;;;;;;;33.78;31.33;;;13.20;99.90;;;;;;5031003;28;20044;-88
2022/11/09 03:04:57;;;;;;;40.13;37.80;;;13.10;99.90;;;;;;4994533;28;20056;-87
2022/11/09 03:07:23;;;;;;;36.42;34.10;;;13.20;99.90;;;;;;5043383;28;20078;-88
2022/11/09 03:09:49;;;;;;;45.33;42.30;;;13.20;99.90;;;;;;5028692;28;20044;-89
2022/11/09 03:12:30;;;;;;;46.03;42.58;;;13.20;99.90;;;;;;5036891;28;20033;-88
2022/11/09 03:15:00;;;;;;;43.90;39.80;;;13.30;99.90;;;;;;5022236;28;20052;-88
2022/11/09 03:17:26;;;;;;;46.88;43.35;;;13.30;99.90;;;;;;5028376;28;20108;-88
2022/11/09 03:19:53;;;;;;;49.83;46.00;;;13.40;99.90;;;;;;5028324;28;20389;-89
2022/11/09 03:22:19;;;;;;;44.88;41.70;;;13.40;99.90;;;;;;5035069;28;20049;-88
2022/11/09 03:24:46;;;;;;;40.58;37.22;;;13.40;99.90;;;;;;5019024;28;20025;-88
2022/11/09 03:27:12;;;;;;;38.83;35.55;;;13.40;99.90;;;;;;5036377;28;20063;-87
2022/11/09 03:29:38;;;;;;;37.35;34.13;;;13.40;99.90;;;;;;5034351;28;20417;-89
2022/11/09 03:32:04;;;;;;;38.38;35.38;;;13.50;99.90;;;;;;5016020;28;20032;-88
2022/11/09 03:34:30;;;;;;;38.92;35.25;;;13.60;99.90;;;;;;5026348;28;20040;-88
2022/11/09 03:36:56;;;;;;;37.15;34.38;;;13.70;99.90;;;;;;5034367;28;20029;-89
2022/11/09 03:39:22;;;;;;;39.00;35.65;;;13.70;99.90;;;;;;5037597;28;20037;-88
2022/11/09 03:41:48;;;;;;;40.50;36.83;;;13.70;99.90;;;;;;5016292;28;20052;-88
2022/11/09 03:44:15;;;;;;;37.50;34.22;;;13.70;99.90;;;;;;5049936;28;20040;-88
2022/11/09 03:46:41;;;;;;;36.88;33.92;;;13.70;99.90;;;;;;5053768;28;20056;-88
2022/11/09 03:49:07;;;;;;;36.60;32.90;;;13.60;99.90;;;;;;5037297;28;20476;-89
2022/11/09 03:51:33;;;;;;;38.60;35.22;;;13.60;99.90;;;;;;5054027;28;20037;-89
2022/11/09 03:53:59;;;;;;;37.95;34.47;;;13.60;99.90;;;;;;5036068;28;20389;-89
2022/11/09 03:56:25;;;;;;;38.25;34.80;;;13.60;99.90;;;;;;5036258;28;20184;-88
2022/11/09 03:58:51;;;;;;;38.28;34.85;;;13.60;99.90;;;;;;5035840;28;20044;-89
2022/11/09 04:01:17;;;;;;;37.55;34.53;;;13.50;99.90;;;;;;5036374;28;20040;-88
2022/11/09 04:03:43;;;;;;;38.75;35.17;;;13.50;99.90;;;;;;5020049;28;20029;-88
2022/11/09 04:06:09;;;;;;;41.83;38.35;;;13.50;99.90;;;;;;5053174;28;20037;-88
2022/11/09 04:08:35;;;;;;;36.95;33.83;;;13.60;99.90;;;;;;5019096;28;20045;-91
2022/11/09 04:11:01;;;;;;;37.45;34.00;;;13.50;99.90;;;;;;5036132;28;20482;-90
2022/11/09 04:13:27;;;;;;;39.33;35.83;;;13.60;99.90;;;;;;5019729;28;20025;-91
2022/11/09 04:15:54;;;;;;;35.38;32.78;;;13.60;99.90;;;;;;5020219;28;20047;-91
2022/11/09 04:18:20;;;;;;;40.50;36.35;;;13.70;99.90;;;;;;5004269;28;20037;-90
2022/11/09 04:20:46;;;;;;;39.38;36.30;;;13.70;99.90;;;;;;5037147;28;20037;-90
2022/11/09 04:23:12;;;;;;;38.33;34.83;;;13.70;99.90;;;;;;5053475;28;20028;-91
2022/11/09 04:25:40;;;;;;;42.78;39.58;;;13.70;99.90;;;;;;5037144;28;20029;-91
2022/11/09 04:28:06;;;;;;;39.90;36.67;;;13.70;99.90;;;;;;5034906;28;20047;-92
2022/11/09 04:30:34;;;;;;;41.75;38.40;;;13.70;99.90;;;;;;5019764;28;20029;-90
2022/11/09 04:33:00;;;;;;;40.92;38.38;;;13.80;99.90;;;;;;5020110;28;20032;-91
2022/11/09 04:35:27;;;;;;;40.83;37.80;;;13.90;99.90;;;;;;5036319;28;20048;-90
2022/11/09 04:37:55;;;;;;;39.47;36.38;;;14.00;99.90;;;;;;5017683;28;20048;-90
2022/11/09 04:40:22;;;;;;;38.65;35.75;;;14.00;99.90;;;;;;5032891;28;20036;-92
2022/11/09 04:42:48;;;;;;;40.78;37.72;;;14.00;99.90;;;;;;5034910;28;20033;-94
2022/11/09 04:45:14;;;;;;;40.40;37.38;;;14.00;99.90;;;;;;5024246;28;20040;-91
2022/11/09 04:47:40;;;;;;;38.42;35.28;;;14.00;99.90;;;;;;5040634;28;20032;-88
2022/11/09 04:50:07;;;;;;;41.03;37.58;;;14.00;99.90;;;;;;5036957;28;20025;-91
2022/11/09 04:52:33;;;;;;;39.17;36.05;;;14.10;99.90;;;;;;5023018;28;20490;-90
2022/11/09 04:55:00;;;;;;;41.08;37.83;;;14.10;99.90;;;;;;5026016;28;20033;-90
2022/11/09 04:57:26;;;;;;;39.22;36.08;;;14.00;99.90;;;;;;5060505;28;20039;-93
2022/11/09 04:59:52;;;;;;;40.03;36.75;;;14.00;99.90;;;;;;5056811;28;20032;-89
2022/11/09 05:02:18;;;;;;;41.58;38.15;;;14.00;99.90;;;;;;5038231;28;20029;-90
2022/11/09 05:04:45;;;;;;;42.78;39.90;;;13.90;99.90;;;;;;5044133;28;20052;-90
2022/11/09 05:07:11;;;;;;;41.38;38.05;;;14.00;99.90;;;;;;5023218;28;20040;-89
2022/11/09 05:09:37;;;;;;;44.28;39.97;;;14.00;99.90;;;;;;5054363;28;20430;-89
2022/11/09 05:12:03;;;;;;;43.67;40.55;;;14.00;99.90;;;;;;5039640;28;20040;-89
2022/11/09 05:14:29;;;;;;;41.45;38.88;;;14.00;99.90;;;;;;5052486;28;20028;-88
2022/11/09 05:16:55;;;;;;;47.92;44.25;;;14.00;99.90;;;;;;5035997;28;20064;-89
2022/11/09 05:19:21;;;;;;;47.75;43.85;;;14.00;99.90;;;;;;5056884;28;20382;-88
2022/11/09 05:21:47;;;;;;;46.53;43.15;;;14.10;99.90;;;;;;5038117;28;20108;-89
2022/11/09 05:24:13;;;;;;;49.33;46.17;;;14.00;99.90;;;;;;5038247;28;20389;-88
2022/11/09 05:26:40;;;;;;;50.28;47.10;;;14.00;99.90;;;;;;5054758;28;20034;-89
2022/11/09 05:29:08;;;;;;;50.70;47.25;;;13.90;99.90;;;;;;5038302;28;20049;-90
2022/11/09 05:31:34;;;;;;;50.60;47.35;;;13.90;99.90;;;;;;5024412;28;20029;-89
2022/11/09 05:34:01;;;;;;;49.72;45.80;;;13.80;99.90;;;;;;5017423;28;20034;-89
2022/11/09 05:36:27;;;;;;;52.42;49.03;;;13.80;99.90;;;;;;5028838;28;20040;-90
2022/11/09 05:38:53;;;;;;;53.10;49.47;;;13.70;99.90;;;;;;5018575;28;20041;-91
2022/11/09 05:41:20;;;;;;;51.85;48.85;;;13.80;99.90;;;;;;5034371;28;20064;-94
2022/11/09 05:43:46;;;;;;;52.42;48.97;;;13.70;99.90;;;;;;5024508;28;20469;-93
2022/11/09 05:46:13;;;;;;;51.83;48.45;;;13.70;99.90;;;;;;5013900;28;20038;-94
2022/11/09 05:48:39;;;;;;;52.35;49.08;;;13.80;99.90;;;;;;5033722;28;20050;-94
2022/11/09 05:51:06;;;;;;;51.25;48.08;;;13.80;99.90;;;;;;5040336;28;20021;-93
2022/11/09 05:53:32;;;;;;;61.90;58.13;;;13.70;99.90;;;;;;5024472;28;20488;-94
2022/11/09 05:56:03;;;;;;;68.57;64.47;;;13.70;99.90;;;;;;5023933;28;20056;-93
2022/11/09 05:58:29;;;;;;;60.40;56.80;;;13.70;99.90;;;;;;5024603;28;20029;-93
2022/11/09 06:00:56;;;;;;;61.03;57.03;;;13.70;99.90;;;;;;5039379;28;20040;-90
2022/11/09 06:03:22;;;;;;;57.03;53.45;;;13.70;99.90;;;;;;5023495;28;20044;-93
2022/11/09 06:05:48;;;;;;;57.85;54.35;;;13.80;99.90;;;;;;5056563;28;20037;-93
2022/11/09 06:08:14;;;;;;;53.30;50.05;;;13.70;99.90;;;;;;5039819;28;20048;-93
2022/11/09 06:10:40;;;;;;;50.13;46.83;;;13.80;99.90;;;;;;5022537;28;20041;-93
2022/11/09 06:13:07;;;;;;;48.83;45.58;;;13.70;99.90;;;;;;5022942;28;20056;-93
2022/11/09 06:15:33;;;;;;;47.05;44.10;;;13.70;99.90;;;;;;5038439;28;20434;-93
2022/11/09 06:17:59;;;;;;;42.17;39.28;;;13.70;99.90;;;;;;5040452;28;20037;-93
2022/11/09 06:20:26;;;;;;;41.47;38.83;;;13.70;99.90;;;;;;5039646;28;20025;-93
2022/11/09 06:22:58;;;;;;;42.38;39.83;;;13.80;99.90;;;;;;5039152;28;20478;-94
2022/11/09 06:25:24;;;;;;;40.90;37.97;;;13.80;99.90;;;;;;5038957;28;20021;-93
2022/11/09 06:27:53;;;;;;;39.15;36.67;;;13.80;99.90;;;;;;5023126;28;20036;-92
2022/11/09 06:30:19;;;;;;;39.35;36.72;;;13.70;99.90;;;;;;5020944;28;20052;-93
2022/11/09 06:32:45;;;;;;;37.72;34.53;;;13.70;99.90;;;;;;5057188;28;20025;-93
2022/11/09 06:35:11;;;;;;;36.58;33.97;;;13.70;99.90;;;;;;5005988;28;20032;-92
2022/11/09 06:37:37;;;;;;;36.13;33.88;;;13.70;99.90;;;;;;5005452;28;20033;-92
2022/11/09 06:40:04;;;;;;;35.80;33.50;;;13.60;99.90;;;;;;5006046;28;20028;-93
2022/11/09 06:42:30;;;;;;;32.35;30.15;;;13.60;99.90;;;;;;5022603;28;20493;-93
2022/11/09 06:44:56;;;;;;;34.45;32.17;;;13.60;99.90;;;;;;5043670;28;20204;-91
2022/11/09 06:47:22;;;;;;;33.70;31.05;;;13.70;99.90;;;;;;5042129;28;20405;-92
2022/11/09 06:49:48;;;;;;;30.85;28.73;;;13.60;99.90;;;;;;5042062;28;20047;-94
2022/11/09 06:52:14;;;;;;;29.75;27.25;;;13.60;99.90;;;;;;5043304;28;20029;-93
2022/11/09 06:54:40;;;;;;;29.70;27.67;;;13.60;99.90;;;;;;5041806;28;20032;-94
2022/11/09 06:57:06;;;;;;;31.83;29.25;;;13.70;99.90;;;;;;5041623;28;20045;-92
2022/11/09 06:59:33;;;;;;;31.30;29.13;;;13.70;99.90;;;;;;5041775;28;20037;-93
2022/11/09 07:02:00;;;;;;;30.25;28.42;;;13.70;99.90;;;;;;5038921;28;20498;-93
2022/11/09 07:04:26;;;;;;;30.05;27.48;;;13.60;99.90;;;;;;5024109;28;20044;-94
2022/11/09 07:06:52;;;;;;;31.02;28.77;;;13.60;99.90;;;;;;5042680;28;20033;-93
2022/11/09 07:09:18;;;;;;;31.60;29.30;;;13.60;99.90;;;;;;5042765;28;20461;-92
2022/11/09 07:11:44;;;;;;;30.52;28.15;;;13.60;99.90;;;;;;5024811;28;20044;-89
2022/11/09 07:14:10;;;;;;;29.90;27.70;;;13.60;99.90;;;;;;5021701;28;20040;-89
2022/11/09 07:16:36;;;;;;;31.35;29.38;;;13.60;99.90;;;;;;5056013;28;20048;-89
2022/11/09 07:19:02;;;;;;;31.23;28.77;;;13.60;99.90;;;;;;5034788;28;20123;-85
2022/11/09 07:21:28;;;;;;;244.73;55.85;;;13.60;99.90;;;;;;5030660;28;20048;-84
2022/11/09 07:23:54;;;;;;;33.75;31.40;;;13.60;99.90;;;;;;5035383;28;20038;-83
2022/11/09 07:26:21;;;;;;;32.28;29.10;;;13.60;99.90;;;;;;5027964;28;20032;-84
2022/11/09 07:28:47;;;;;;;36.05;33.08;;;13.50;99.90;;;;;;5036842;28;20052;-84
2022/11/09 07:31:13;;;;;;;33.63;30.77;;;13.50;99.90;;;;;;5016690;28;20048;-85
2022/11/09 07:33:39;;;;;;;33.85;31.27;;;13.40;99.90;;;;;;5035992;28;20033;-85
2022/11/09 07:36:05;;;;;;;35.22;32.25;;;13.30;99.90;;;;;;5019387;28;20041;-87
2022/11/09 07:38:31;;;;;;;34.78;31.88;;;13.30;99.90;;;;;;5020783;28;20041;-85
2022/11/09 07:40:59;;;;;;;37.40;34.13;;;13.30;99.90;;;;;;5005240;28;20048;-89
2022/11/09 07:43:25;;;;;;;36.22;33.42;;;13.30;99.90;;;;;;5037277;28;20489;-88
2022/11/09 07:45:51;;;;;;;37.08;34.08;;;13.30;99.90;;;;;;5034197;28;20025;-88
2022/11/09 07:48:17;;;;;;;34.63;31.92;;;13.30;99.90;;;;;;5020646;28;20481;-87
2022/11/09 07:50:43;;;;;;;36.58;34.03;;;13.30;99.90;;;;;;5055180;28;20025;-88
2022/11/09 07:53:12;;;;;;;36.25;33.42;;;13.30;99.90;;;;;;5028043;28;20033;-87
2022/11/09 07:55:38;;;;;;;37.10;34.38;;;13.40;99.90;;;;;;5035627;28;20033;-89
2022/11/09 07:58:06;;;;;;;37.50;34.45;;;13.40;99.90;;;;;;5005018;28;20037;-88
2022/11/09 08:00:34;;;;;;;34.88;32.30;;;13.40;99.90;;;;;;5020371;28;20033;-86
2022/11/09 08:03:01;;;;;;;37.13;34.30;;;13.40;99.90;;;;;;5018442;28;20036;-87
2022/11/09 08:05:27;;;;;;;33.15;30.30;;;13.50;99.90;;;;;;5019450;28;20033;-87
2022/11/09 08:07:57;;;;;;;36.50;33.83;;;13.50;99.90;;;;;;5020273;28;20033;-89
2022/11/09 08:10:24;;;;;;;37.13;34.28;;;13.40;99.90;;;;;;5019475;28;20056;-87
2022/11/09 08:12:58;;;;;;;39.75;36.13;;;13.40;99.90;;;;;;5002691;28;20037;-87
2022/11/09 08:15:25;;;;;;;37.88;34.38;;;13.40;99.90;;;;;;5019876;28;20025;-87
2022/11/09 08:17:51;;;;;;;39.20;36.08;;;13.40;99.90;;;;;;5001776;28;20041;-87
2022/11/09 08:20:18;;;;;;;37.67;34.90;;;13.50;99.90;;;;;;5016857;28;20048;-87
2022/11/09 08:22:45;;;;;;;37.88;34.85;;;13.40;99.90;;;;;;5017421;28;20048;-88
2022/11/09 08:25:11;;;;;;;38.75;35.83;;;13.50;99.90;;;;;;5017976;28;20040;-87
2022/11/09 08:27:39;;;;;;;37.47;34.63;;;13.50;99.90;;;;;;5003631;28;20037;-86
2022/11/09 08:30:06;;;;;;;38.08;35.28;;;13.60;99.90;;;;;;5035929;28;20033;-88
2022/11/09 08:32:32;;;;;;;36.00;32.78;;;13.60;99.90;;;;;;5018897;28;20040;-88
2022/11/09 08:34:58;;;;;;;35.30;32.03;;;13.60;99.90;;;;;;5019574;28;20033;-85
2022/11/09 08:37:24;;;;;;;33.13;30.35;;;13.60;99.90;;;;;;5015924;28;20474;-88
2022/11/09 08:39:51;;;;;;;31.80;28.55;;;13.60;99.90;;;;;;5003462;28;20044;-87
2022/11/09 08:42:17;;;;;;;30.15;27.75;;;13.70;99.90;;;;;;5019346;28;20405;-87
2022/11/09 08:44:43;;;;;;;29.33;27.13;;;13.70;99.90;;;;;;5015610;28;20037;-85
2022/11/09 08:47:09;;;;;;;32.05;29.17;;;13.70;99.90;;;;;;5033733;28;20363;-87
2022/11/09 08:49:35;;;;;;;33.30;30.75;;;13.80;99.90;;;;;;5032403;28;20033;-87
2022/11/09 08:52:01;;;;;;;31.67;28.98;;;13.80;99.90;;;;;;5001909;28;20029;-88
2022/11/09 08:54:27;;;;;;;34.53;31.65;;;13.90;99.90;;;;;;5019641;28;20053;-88
2022/11/09 08:56:56;;;;;;;33.40;30.98;;;13.90;99.90;;;;;;5043684;28;20044;-91
2022/11/09 08:59:22;;;;;;;35.33;32.47;;;14.00;99.90;;;;;;5057720;28;20032;-90
2022/11/09 09:01:48;;;;;;;41.47;38.40;;;14.00;99.90;;;;;;5009838;28;20037;-89
2022/11/09 09:04:15;;;;;;;42.72;39.95;;;14.10;99.90;;;;;;5001575;28;20052;-88
2022/11/09 09:06:41;;;;;;;33.75;31.15;;;14.10;99.90;;;;;;5020315;28;20040;-90
2022/11/09 09:09:07;;;;;;;42.33;39.53;;;14.20;99.90;;;;;;5042236;28;20041;-90
2022/11/09 09:11:33;;;;;;;39.10;36.45;;;14.30;99.90;;;;;;5019754;28;20488;-86
2022/11/09 09:13:59;;;;;;;38.08;34.75;;;14.30;99.90;;;;;;5032700;28;20025;-85
2022/11/09 09:16:25;;;;;;;33.60;30.85;;;14.30;99.90;;;;;;5000241;28;20032;-86
2022/11/09 09:18:51;;;;;;;44.08;41.10;;;14.30;99.90;;;;;;5014796;28;20034;-90
2022/11/09 09:21:17;;;;;;;45.78;42.42;;;14.30;99.90;;;;;;5028942;28;20044;-84
2022/11/09 09:23:45;;;;;;;44.42;41.30;;;14.40;99.90;;;;;;5017775;28;20033;-91
2022/11/09 09:26:11;;;;;;;43.90;40.95;;;14.30;99.90;;;;;;5020867;28;20044;-93
2022/11/09 09:28:37;;;;;;;46.72;43.08;;;14.30;99.90;;;;;;5038584;28;20041;-87
2022/11/09 09:31:03;;;;;;;49.20;45.83;;;14.40;99.90;;;;;;5034179;28;20041;-85
2022/11/09 09:33:30;;;;;;;46.25;42.85;;;14.50;99.90;;;;;;5018188;28;20032;-85
2022/11/09 09:35:56;;;;;;;33.03;29.88;;;14.60;99.90;;;;;;5052613;28;20028;-86
2022/11/09 09:38:23;;;;;;;24.90;22.42;;;14.60;99.90;;;;;;5018442;28;20139;-84
2022/11/09 09:40:55;;;;;;;24.88;22.45;;;14.70;99.90;;;;;;5018475;28;20056;-84
2022/11/09 09:43:42;;;;;;;25.48;23.00;;;14.80;99.90;;;;;;5033077;28;20366;-85
2022/11/09 09:46:19;;;;;;;30.45;23.25;;;14.90;99.90;;;;;;5033807;28;20036;-83
2022/11/09 09:48:49;;;;;;;27.20;24.50;;;14.90;99.90;;;;;;5024423;28;20041;-84
2022/11/09 09:51:28;;;;;;;29.88;25.33;;;14.90;99.90;;;;;;5003474;28;20461;-85
2022/11/09 09:53:58;;;;;;;28.42;25.52;;;14.90;99.90;;;;;;5033217;28;20036;-85
2022/11/09 09:56:29;;;;;;;27.40;24.95;;;14.90;99.90;;;;;;5017955;28;20051;-84
2022/11/09 09:59:13;;;;;;;;;;;14.90;99.90;;;;;;5019219;28;20028;-85
2022/11/09 10:01:41;;;;;;;28.80;26.13;;;14.90;99.90;;;;;;5049695;28;19908;-85
2022/11/09 10:04:15;;;;;;;27.63;24.75;;;15.00;99.90;;;;;;5032275;28;20025;-87
2022/11/09 10:07:02;;;;;;;27.00;24.13;;;15.00;99.90;;;;;;5032903;28;20037;-87
2022/11/09 10:09:31;;;;;;;30.05;27.35;;;15.00;99.90;;;;;;5041112;28;20049;-94
2022/11/09 10:12:09;;;;;;;30.88;27.70;;;15.00;99.90;;;;;;5058681;28;20392;-90
2022/11/09 10:15:01;;;;;;;31.35;28.80;;;15.10;99.90;;;;;;5057017;28;20028;-92
2022/11/09 10:17:37;;;;;;;29.23;26.65;;;15.20;99.90;;;;;;4959270;29;20031;-92
2022/11/09 10:20:25;;;;;;;27.38;24.17;;;15.30;99.90;;;;;;4946389;29;20047;-92
2022/11/09 10:23:12;;;;;;;28.48;25.60;;;15.20;99.90;;;;;;4940140;29;20046;-89
2022/11/09 10:25:38;;;;;;;30.20;27.48;;;15.30;99.90;;;;;;4956485;29;20035;-90
2022/11/09 10:28:09;;;;;;;28.75;26.15;;;15.30;99.90;;;;;;4939396;29;20043;-91
2022/11/09 10:30:35;;;;;;;30.08;27.33;;;15.40;99.90;;;;;;4941655;29;20054;-90
2022/11/09 10:33:13;;;;;;;30.27;27.25;;;15.50;99.90;;;;;;4940345;29;20036;-91
2022/11/09 10:36:17;;;;;;;34.22;31.17;;;15.50;99.90;;;;;;4932327;29;20046;-89
2022/11/09 10:38:45;;;;;;;35.75;32.13;;;15.50;99.90;;;;;;4945931;29;20046;-91
2022/11/09 10:41:29;;;;;;;35.30;32.67;;;15.60;99.90;;;;;;4941321;28;20047;-90
2022/11/09 10:43:55;;;;;;;37.55;34.38;;;15.60;99.90;;;;;;4942305;29;20034;-89
2022/11/09 10:46:21;;;;;;;35.88;32.65;;;15.70;99.90;;;;;;4956545;28;20043;-91
2022/11/09 10:48:47;;;;;;;35.10;32.22;;;15.70;99.90;;;;;;4953027;29;20035;-92
2022/11/09 10:51:38;;;;;;;34.90;31.80;;;15.70;99.90;;;;;;4937184;29;20050;-90
2022/11/09 10:54:15;;;;;;;35.90;32.63;;;15.70;99.90;;;;;;4960301;28;20397;-87
2022/11/09 10:56:45;;;;;;;34.65;31.55;;;15.70;99.90;;;;;;5049005;28;20025;-90
2022/11/09 10:59:35;;;;;;;29.45;26.85;;;15.70;99.90;;;;;;5001180;28;20063;-89
2022/11/09 11:02:01;;;;;;;26.08;23.23;;;15.80;99.90;;;;;;5031880;28;20430;-89
2022/11/09 11:04:27;;;;;;;27.88;25.60;;;15.80;99.90;;;;;;5052012;28;20386;-90
2022/11/09 11:06:54;;;;;;;28.00;25.65;;;15.80;99.90;;;;;;5034631;28;20037;-88
2022/11/09 11:09:20;;;;;;;24.83;22.73;;;15.90;99.90;;;;;;5049282;28;20032;-89
2022/11/09 11:11:47;;;;;;;27.55;24.15;;;15.90;99.90;;;;;;5014328;28;20045;-87
2022/11/09 11:14:29;;;;;;;26.52;24.05;;;16.00;99.90;;;;;;5025312;28;20032;-90
2022/11/09 11:16:55;;;;;;;27.70;25.55;;;16.00;99.90;;;;;;5030359;28;20029;-88
2022/11/09 11:19:30;;;;;;;28.08;25.52;;;16.00;99.90;;;;;;5016845;28;20036;-89
2022/11/09 11:22:26;;;;;;;27.67;25.05;;;16.00;99.90;;;;;;5018676;28;20188;-91
2022/11/09 11:24:59;;;;;;;28.77;26.15;;;15.90;99.90;;;;;;5033083;28;20033;-91
2022/11/09 11:27:31;;;;;;;30.58;27.98;;;16.00;99.90;;;;;;5017247;28;20308;-87
2022/11/09 11:30:10;;;;;;;31.20;28.13;;;16.00;99.90;;;;;;5034133;28;20413;-89
2022/11/09 11:32:36;;;;;;;29.60;27.23;;;16.10;99.90;;;;;;5038938;28;20048;-91
2022/11/09 11:35:04;;;;;;;27.17;24.83;;;16.10;99.90;;;;;;5006336;28;20033;-92
2022/11/09 11:37:45;;;;;;;32.17;28.85;;;16.00;99.90;;;;;;4998820;28;20045;-89
2022/11/09 11:40:21;;;;;;;30.08;27.55;;;16.10;99.90;;;;;;5034984;28;20045;-89
2022/11/09 11:42:58;;;;;;;30.88;28.20;;;16.10;99.90;;;;;;5038045;28;20473;-89
2022/11/09 11:45:34;;;;;;;28.48;26.27;;;16.10;99.90;;;;;;5037891;28;20040;-89
2022/11/09 11:48:03;;;;;;;33.83;30.70;;;16.10;99.90;;;;;;5023002;28;20053;-89
2022/11/09 11:50:54;;;;;;;31.83;29.00;;;16.10;99.90;;;;;;5035727;28;20048;-90
2022/11/09 11:53:45;;;;;;;31.58;28.95;;;16.10;99.90;;;;;;5036481;28;20036;-89
2022/11/09 11:56:21;;;;;;;31.77;29.17;;;16.10;99.90;;;;;;5055562;28;20028;-89
2022/11/09 11:58:56;;;;;;;29.80;27.02;;;16.10;99.90;;;;;;5038225;28;20033;-90
2022/11/09 12:01:37;;;;;;;30.33;27.98;;;16.10;99.90;;;;;;5053227;28;20037;-90
2022/11/09 12:04:20;;;;;;;29.15;26.58;;;16.20;99.90;;;;;;5055119;28;20036;-90
2022/11/09 12:06:55;;;;;;;30.38;27.55;;;16.30;99.90;;;;;;5033150;28;20399;-87
2022/11/09 12:09:59;;;;;;;32.58;29.77;;;16.30;99.90;;;;;;5049057;28;20056;-87
2022/11/09 12:12:50;;;;;;;27.73;25.38;;;16.40;99.90;;;;;;5035899;28;20477;-88
2022/11/09 12:15:29;;;;;;;29.23;27.13;;;16.40;99.90;;;;;;5037497;28;20394;-87
2022/11/09 12:18:20;;;;;;;25.08;21.88;;;16.40;99.90;;;;;;5023780;28;20029;-88
2022/11/09 12:21:15;;;;;;;23.10;20.85;;;16.50;99.90;;;;;;5052130;28;20338;-87
2022/11/09 12:24:07;;;;;;;23.38;21.10;;;16.60;99.80;;;;;;5034333;28;20255;-87
2022/11/09 12:26:37;;;;;;;26.10;23.80;;;16.60;99.90;;;;;;4955523;28;20035;-87
2022/11/09 12:29:26;;;;;;;27.05;22.13;;;16.60;99.90;;;;;;4968489;28;20050;-87
2022/11/09 12:32:33;;;;;;;21.98;19.30;;;16.80;99.50;;;;;;4951171;28;20035;-86
2022/11/09 12:35:07;;;;;;;23.58;21.58;;;16.90;99.00;;;;;;4955050;28;20037;-87
2022/11/09 12:37:36;;;;;;;22.77;20.05;;;16.90;98.90;;;;;;4969138;28;20416;-86
2022/11/09 12:40:11;;;;;;;23.08;20.80;;;17.00;99.00;;;;;;4947986;28;20043;-86